createdAt,value
2017-07-31T00:01:35.649Z,5.93
2017-07-31T00:04:03.119Z,5.60
2017-07-31T00:06:30.744Z,5.20
2017-07-31T00:08:58.232Z,5.80
2017-07-31T00:11:25.854Z,6.00
2017-07-31T00:13:53.504Z,5.90
2017-07-31T00:16:20.791Z,5.43
2017-07-31T00:18:48.087Z,5.40
2017-07-31T00:21:15.443Z,5.43
2017-07-31T00:23:42.760Z,5.70
2017-07-31T00:26:10.417Z,5.60
2017-07-31T00:28:38.041Z,5.80
2017-07-31T00:31:05.729Z,5.60
2017-07-31T00:33:33.377Z,5.43
2017-07-31T00:36:00.712Z,5.50
2017-07-31T00:38:28.033Z,5.30
2017-07-31T00:40:55.329Z,5.83
2017-07-31T00:43:22.632Z,5.30
2017-07-31T00:45:49.915Z,5.20
2017-07-31T00:48:17.410Z,5.80
2017-07-31T00:50:44.697Z,5.80
2017-07-31T00:53:12.216Z,5.50
2017-07-31T00:55:40.020Z,6.00
2017-07-31T00:58:07.988Z,5.53
2017-07-31T01:00:35.298Z,6.00
2017-07-31T01:03:02.797Z,5.30
2017-07-31T01:05:30.130Z,6.10
2017-07-31T01:07:57.956Z,5.10
2017-07-31T01:10:25.428Z,5.67
2017-07-31T01:12:52.953Z,5.53
2017-07-31T01:15:20.257Z,5.77
2017-07-31T01:17:47.760Z,5.57
2017-07-31T01:20:15.619Z,5.40
2017-07-31T01:22:42.912Z,5.30
2017-07-31T01:25:10.514Z,5.57
2017-07-31T01:27:38.317Z,5.70
2017-07-31T01:30:06.037Z,5.33
2017-07-31T01:32:33.968Z,5.50
2017-07-31T01:35:01.800Z,5.70
2017-07-31T01:37:29.121Z,5.70
2017-07-31T01:39:56.583Z,5.23
2017-07-31T01:42:23.892Z,5.30
2017-07-31T01:44:51.364Z,5.93
2017-07-31T01:47:18.677Z,5.60
2017-07-31T01:49:46.150Z,5.37
2017-07-31T01:52:13.474Z,5.27
2017-07-31T01:54:40.755Z,5.40
2017-07-31T01:57:08.597Z,5.00
2017-07-31T01:59:35.926Z,4.90
2017-07-31T02:02:03.237Z,5.30
2017-07-31T02:04:30.700Z,5.40
2017-07-31T02:06:58.198Z,5.27
2017-07-31T02:09:25.501Z,5.50
2017-07-31T02:11:52.803Z,5.90
2017-07-31T02:14:20.311Z,5.30
2017-07-31T02:16:47.602Z,5.03
2017-07-31T02:19:15.067Z,5.50
2017-07-31T02:21:42.387Z,5.33
2017-07-31T02:24:09.782Z,5.70
2017-07-31T02:26:37.454Z,5.40
2017-07-31T02:29:05.167Z,5.80
2017-07-31T02:31:32.826Z,5.00
2017-07-31T02:34:00.565Z,5.10
2017-07-31T02:36:27.878Z,6.10
2017-07-31T02:38:55.212Z,5.67
2017-07-31T02:41:22.533Z,5.80
2017-07-31T02:43:49.817Z,5.60
2017-07-31T02:46:17.139Z,5.83
2017-07-31T02:48:44.434Z,5.83
2017-07-31T02:51:11.744Z,6.10
2017-07-31T02:53:39.053Z,5.27
2017-07-31T02:56:06.546Z,5.80
2017-07-31T02:58:34.378Z,5.87
2017-07-31T03:01:01.708Z,5.90
2017-07-31T03:03:29.014Z,5.87
2017-07-31T03:05:56.310Z,6.10
2017-07-31T03:08:23.959Z,6.70
2017-07-31T03:10:51.257Z,5.90
2017-07-31T03:13:18.831Z,6.10
2017-07-31T03:15:46.138Z,6.47
2017-07-31T03:18:13.638Z,6.50
2017-07-31T03:20:41.191Z,6.43
2017-07-31T03:23:09.041Z,5.73
2017-07-31T03:25:36.854Z,6.00
2017-07-31T03:28:04.307Z,6.20
2017-07-31T03:30:32.165Z,6.20
2017-07-31T03:32:59.450Z,6.10
2017-07-31T03:35:26.777Z,6.40
2017-07-31T03:37:54.580Z,6.70
2017-07-31T03:40:22.155Z,6.97
2017-07-31T03:42:49.470Z,7.00
2017-07-31T03:45:16.932Z,6.40
2017-07-31T03:47:44.215Z,6.37
2017-07-31T03:50:11.549Z,6.70
2017-07-31T03:52:38.832Z,6.67
2017-07-31T03:55:06.294Z,7.03
2017-07-31T03:57:34.040Z,6.80
2017-07-31T04:00:01.340Z,7.67
2017-07-31T04:02:28.652Z,7.07
2017-07-31T04:04:56.374Z,6.60
2017-07-31T04:07:23.737Z,6.77
2017-07-31T04:09:51.553Z,6.80
2017-07-31T04:12:19.435Z,6.53
2017-07-31T04:14:46.728Z,6.73
2017-07-31T04:17:14.232Z,6.27
2017-07-31T04:19:42.058Z,6.77
2017-07-31T04:22:09.353Z,6.23
2017-07-31T04:24:36.666Z,6.87
2017-07-31T04:27:03.992Z,6.50
2017-07-31T04:29:31.307Z,6.50
2017-07-31T04:31:58.592Z,6.30
2017-07-31T04:34:26.844Z,7.17
2017-07-31T04:36:54.136Z,6.50
2017-07-31T04:39:21.457Z,7.63
2017-07-31T04:41:48.752Z,7.40
2017-07-31T04:44:16.233Z,7.20
2017-07-31T04:46:43.532Z,7.63
2017-07-31T04:49:10.843Z,7.20
2017-07-31T04:51:38.247Z,6.90
2017-07-31T04:54:05.565Z,7.13
2017-07-31T04:56:33.031Z,7.10
2017-07-31T04:59:00.331Z,7.50
2017-07-31T05:01:27.704Z,7.50
2017-07-31T05:03:55.034Z,7.30
2017-07-31T05:06:22.395Z,7.30
2017-07-31T05:08:49.714Z,7.30
2017-07-31T05:11:17.039Z,7.20
2017-07-31T05:13:44.402Z,7.67
2017-07-31T05:16:11.735Z,6.70
2017-07-31T05:18:39.072Z,8.47
2017-07-31T05:21:06.379Z,7.50
2017-07-31T05:23:33.688Z,7.40
2017-07-31T05:26:01.006Z,7.60
2017-07-31T05:28:28.354Z,7.17
2017-07-31T05:30:55.670Z,7.10
2017-07-31T05:33:22.986Z,7.83
2017-07-31T05:35:50.294Z,7.00
2017-07-31T05:38:17.607Z,8.27
2017-07-31T05:40:44.973Z,7.23
2017-07-31T05:43:12.309Z,7.80
2017-07-31T05:45:39.669Z,7.80
2017-07-31T05:48:06.970Z,8.00
2017-07-31T05:50:34.348Z,7.63
2017-07-31T05:53:01.641Z,8.17
2017-07-31T05:55:28.973Z,7.50
2017-07-31T05:57:56.269Z,7.60
2017-07-31T06:00:23.620Z,7.33
2017-07-31T06:02:50.905Z,7.33
2017-07-31T06:05:18.201Z,7.43
2017-07-31T06:07:45.535Z,7.77
2017-07-31T06:10:12.823Z,7.47
2017-07-31T06:12:40.129Z,7.20
2017-07-31T06:15:07.442Z,7.80
2017-07-31T06:17:34.765Z,7.13
2017-07-31T06:20:02.091Z,7.97
2017-07-31T06:22:29.419Z,7.50
2017-07-31T06:24:56.708Z,8.20
2017-07-31T06:27:24.004Z,7.87
2017-07-31T06:29:51.373Z,7.90
2017-07-31T06:32:18.692Z,8.07
2017-07-31T06:34:46.015Z,7.20
2017-07-31T06:37:13.327Z,7.10
2017-07-31T06:39:40.936Z,7.00
2017-07-31T06:42:08.269Z,7.83
2017-07-31T06:44:35.621Z,7.77
2017-07-31T06:47:03.358Z,7.70
2017-07-31T06:49:30.709Z,8.03
2017-07-31T06:51:58.762Z,8.03
2017-07-31T06:54:26.057Z,7.70
2017-07-31T06:56:53.377Z,7.07
2017-07-31T06:59:20.704Z,7.67
2017-07-31T07:01:48.064Z,7.33
2017-07-31T07:04:15.378Z,7.20
2017-07-31T07:06:42.694Z,7.90
2017-07-31T07:09:10.002Z,6.90
2017-07-31T07:11:37.322Z,7.90
2017-07-31T07:14:04.647Z,7.47
2017-07-31T07:16:32.012Z,6.97
2017-07-31T07:18:59.337Z,7.50
2017-07-31T07:21:26.669Z,7.53
2017-07-31T07:23:54.029Z,7.90
2017-07-31T07:26:21.372Z,7.27
2017-07-31T07:28:48.704Z,7.50
2017-07-31T07:31:16.334Z,7.00
2017-07-31T07:33:43.661Z,7.47
2017-07-31T07:36:11.013Z,6.80
2017-07-31T07:38:38.333Z,6.97
2017-07-31T07:41:05.632Z,7.10
2017-07-31T07:43:33.022Z,7.10
2017-07-31T07:46:00.327Z,6.97
2017-07-31T07:48:27.639Z,6.87
2017-07-31T07:50:54.980Z,6.80
2017-07-31T07:53:22.327Z,7.03
2017-07-31T07:55:49.681Z,6.60
2017-07-31T07:58:16.997Z,7.80
2017-07-31T08:00:44.349Z,6.57
2017-07-31T08:03:11.659Z,6.93
2017-07-31T08:05:38.980Z,6.90
2017-07-31T08:08:06.345Z,6.13
2017-07-31T08:10:33.729Z,6.20
2017-07-31T08:13:01.040Z,6.80
2017-07-31T08:15:28.377Z,6.60
2017-07-31T08:17:55.710Z,6.67
2017-07-31T08:20:23.008Z,6.90
2017-07-31T08:22:51.233Z,7.03
2017-07-31T08:25:18.557Z,6.63
2017-07-31T08:27:45.884Z,6.83
2017-07-31T08:30:13.184Z,6.50
2017-07-31T08:32:40.515Z,6.93
2017-07-31T08:35:08.734Z,6.80
2017-07-31T08:37:36.532Z,7.20
2017-07-31T08:40:03.842Z,6.57
2017-07-31T08:42:31.141Z,6.70
2017-07-31T08:45:00.280Z,6.80
2017-07-31T08:47:27.613Z,6.17
2017-07-31T08:49:54.992Z,6.30
2017-07-31T08:52:22.296Z,6.17
2017-07-31T08:54:49.617Z,7.27
2017-07-31T08:57:17.947Z,6.93
2017-07-31T08:59:45.268Z,7.00
2017-07-31T09:02:13.713Z,6.70
2017-07-31T09:04:41.166Z,6.40
2017-07-31T09:07:09.322Z,6.20
2017-07-31T09:09:36.696Z,6.17
2017-07-31T09:12:04.008Z,6.70
2017-07-31T09:14:31.347Z,6.47
2017-07-31T09:16:59.585Z,5.70
2017-07-31T09:19:26.951Z,6.23
2017-07-31T09:21:55.759Z,6.27
2017-07-31T09:24:23.048Z,6.07
2017-07-31T09:26:50.366Z,6.40
2017-07-31T09:29:17.654Z,6.23
2017-07-31T09:31:46.828Z,6.67
2017-07-31T09:34:14.168Z,6.30
2017-07-31T09:36:41.485Z,6.10
2017-07-31T09:39:08.807Z,5.23
2017-07-31T09:41:36.583Z,5.23
2017-07-31T09:44:03.906Z,5.70
2017-07-31T09:46:31.210Z,5.67
2017-07-31T09:48:58.537Z,6.10
2017-07-31T09:51:25.868Z,5.40
2017-07-31T09:53:53.234Z,6.37
2017-07-31T09:56:20.535Z,6.07
2017-07-31T09:58:47.901Z,5.27
2017-07-31T10:01:15.229Z,6.23
2017-07-31T10:03:43.469Z,6.17
2017-07-31T10:06:10.810Z,5.90
2017-07-31T10:08:38.270Z,6.10
2017-07-31T10:11:05.630Z,6.10
2017-07-31T10:13:32.942Z,5.70
2017-07-31T10:16:00.259Z,5.60
2017-07-31T10:18:27.568Z,6.27
2017-07-31T10:20:54.877Z,6.10
2017-07-31T10:23:22.197Z,6.43
2017-07-31T10:25:49.507Z,5.93
2017-07-31T10:28:16.872Z,5.60
2017-07-31T10:30:44.207Z,6.10
2017-07-31T10:33:11.530Z,6.40
2017-07-31T10:35:38.843Z,6.20
2017-07-31T10:38:06.470Z,6.10
2017-07-31T10:40:33.787Z,5.80
2017-07-31T10:43:01.093Z,6.37
2017-07-31T10:45:28.389Z,5.70
2017-07-31T10:47:55.729Z,6.37
2017-07-31T10:50:23.094Z,5.73
2017-07-31T10:52:50.409Z,5.33
2017-07-31T10:55:17.729Z,4.50
2017-07-31T10:57:45.067Z,4.47
2017-07-31T11:00:12.371Z,4.90
2017-07-31T11:02:39.702Z,4.60
2017-07-31T11:05:07.033Z,4.93
2017-07-31T11:07:34.355Z,4.80
2017-07-31T11:10:01.661Z,6.20
2017-07-31T11:12:28.970Z,4.23
2017-07-31T11:14:56.300Z,4.40
2017-07-31T11:17:23.600Z,3.80
2017-07-31T11:19:50.922Z,3.10
2017-07-31T11:22:18.221Z,3.70
2017-07-31T11:24:45.530Z,4.10
2017-07-31T11:27:12.885Z,3.67
2017-07-31T11:29:40.210Z,3.80
2017-07-31T11:32:07.539Z,3.40
2017-07-31T11:34:34.839Z,3.60
2017-07-31T11:37:02.151Z,3.53
2017-07-31T11:39:29.728Z,3.90
2017-07-31T11:41:57.049Z,4.00
2017-07-31T11:44:24.359Z,3.70
2017-07-31T11:46:51.668Z,3.40
2017-07-31T11:49:18.951Z,3.20
2017-07-31T11:51:46.320Z,3.27
2017-07-31T11:54:13.617Z,3.00
2017-07-31T11:56:40.904Z,3.03
2017-07-31T11:59:08.207Z,3.20
2017-07-31T12:01:35.653Z,3.17
2017-07-31T12:04:02.972Z,3.13
2017-07-31T12:06:30.262Z,3.27
2017-07-31T12:08:57.585Z,3.10
2017-07-31T12:11:24.907Z,3.40
2017-07-31T12:13:52.221Z,2.93
2017-07-31T12:16:19.517Z,3.23
2017-07-31T12:18:46.872Z,3.40
2017-07-31T12:21:14.186Z,2.90
2017-07-31T12:23:41.521Z,3.50
2017-07-31T12:26:08.867Z,3.70
2017-07-31T12:28:36.205Z,3.23
2017-07-31T12:31:03.533Z,3.50
2017-07-31T12:33:30.819Z,3.90
2017-07-31T12:35:58.129Z,3.40
2017-07-31T12:38:25.461Z,3.00
2017-07-31T12:40:52.762Z,3.40
2017-07-31T12:43:20.241Z,3.53
2017-07-31T12:45:47.583Z,3.20
2017-07-31T12:48:14.878Z,3.50
2017-07-31T12:50:42.172Z,3.50
2017-07-31T12:53:09.524Z,3.73
2017-07-31T12:55:36.839Z,3.60
2017-07-31T12:58:04.155Z,3.60
2017-07-31T13:00:31.459Z,3.50
2017-07-31T13:02:58.793Z,3.87
2017-07-31T13:05:26.124Z,3.70
2017-07-31T13:07:53.485Z,5.87
2017-07-31T13:10:20.794Z,4.90
2017-07-31T13:12:48.129Z,3.40
2017-07-31T13:15:15.419Z,3.60
2017-07-31T13:17:42.718Z,3.40
2017-07-31T13:20:10.034Z,3.30
2017-07-31T13:22:37.334Z,3.63
2017-07-31T13:25:04.631Z,3.30
2017-07-31T13:27:31.915Z,3.57
2017-07-31T13:29:59.529Z,3.67
2017-07-31T13:32:26.824Z,3.37
2017-07-31T13:34:54.142Z,3.67
2017-07-31T13:37:21.447Z,3.40
2017-07-31T13:39:48.748Z,3.67
2017-07-31T13:42:16.049Z,3.07
2017-07-31T13:44:43.367Z,3.33
2017-07-31T13:47:10.676Z,3.20
2017-07-31T13:49:37.973Z,3.27
2017-07-31T13:52:05.302Z,3.00
2017-07-31T13:54:32.629Z,3.03
2017-07-31T13:56:59.955Z,2.90
2017-07-31T13:59:27.254Z,3.27
2017-07-31T14:01:54.576Z,3.43
2017-07-31T14:04:21.889Z,3.30
2017-07-31T14:06:49.195Z,2.97
2017-07-31T14:09:16.492Z,2.87
2017-07-31T14:11:43.820Z,3.00
2017-07-31T14:14:11.148Z,2.60
2017-07-31T14:16:38.431Z,3.10
2017-07-31T14:19:05.746Z,3.03
2017-07-31T14:21:33.086Z,3.08
2017-07-31T14:24:00.551Z,2.70
2017-07-31T14:26:27.881Z,3.17
2017-07-31T14:28:55.249Z,3.42
2017-07-31T14:31:22.536Z,2.80
2017-07-31T14:33:49.858Z,3.30
2017-07-31T14:36:17.152Z,3.10
2017-07-31T14:38:44.501Z,3.20
2017-07-31T14:41:11.805Z,3.58
2017-07-31T14:43:39.110Z,3.20
2017-07-31T14:46:06.421Z,3.15
2017-07-31T14:48:33.737Z,3.28
2017-07-31T14:51:01.057Z,2.90
2017-07-31T14:53:28.349Z,3.60
2017-07-31T14:55:55.672Z,3.58
2017-07-31T14:58:22.997Z,3.60
2017-07-31T15:00:50.322Z,3.93
2017-07-31T15:03:17.624Z,3.87
2017-07-31T15:05:44.940Z,4.40
2017-07-31T15:08:12.248Z,3.60
2017-07-31T15:10:39.545Z,4.20
2017-07-31T15:13:06.875Z,4.40
2017-07-31T15:15:34.489Z,4.23
2017-07-31T15:18:01.842Z,3.80
2017-07-31T15:20:29.165Z,3.70
2017-07-31T15:22:56.473Z,4.30
2017-07-31T15:25:23.760Z,4.20
2017-07-31T15:27:51.106Z,4.10
2017-07-31T15:30:18.438Z,4.20
2017-07-31T15:32:45.752Z,4.13
2017-07-31T15:35:13.054Z,3.53
2017-07-31T15:37:40.361Z,4.17
2017-07-31T15:40:07.722Z,3.97
2017-07-31T15:42:35.034Z,4.13
2017-07-31T15:45:02.357Z,3.80
2017-07-31T15:47:29.654Z,4.10
2017-07-31T15:49:56.978Z,4.57
2017-07-31T15:52:24.289Z,4.17
2017-07-31T15:54:51.600Z,4.50
2017-07-31T15:57:18.898Z,4.33
2017-07-31T15:59:46.212Z,3.87
2017-07-31T16:02:13.564Z,4.00
2017-07-31T16:04:40.898Z,4.23
2017-07-31T16:07:08.220Z,3.97
2017-07-31T16:09:36.152Z,4.03
2017-07-31T16:12:03.491Z,3.90
2017-07-31T16:14:30.794Z,5.00
2017-07-31T16:16:58.127Z,4.07
2017-07-31T16:19:25.608Z,4.00
2017-07-31T16:21:52.935Z,4.47
2017-07-31T16:24:20.324Z,4.30
2017-07-31T16:26:47.604Z,4.83
2017-07-31T16:29:14.931Z,3.90
2017-07-31T16:31:42.300Z,4.60
2017-07-31T16:34:09.638Z,4.00
2017-07-31T16:36:37.062Z,4.40
2017-07-31T16:39:20.101Z,4.60
2017-07-31T16:41:53.365Z,4.50
2017-07-31T16:44:26.585Z,4.00
2017-07-31T16:46:53.877Z,4.33
2017-07-31T16:49:21.306Z,4.43
2017-07-31T16:51:48.651Z,3.83
2017-07-31T16:54:15.977Z,4.30
2017-07-31T16:56:43.298Z,4.27
2017-07-31T16:59:10.588Z,3.80
2017-07-31T17:01:37.917Z,4.20
2017-07-31T17:04:05.253Z,4.70
2017-07-31T17:06:32.568Z,5.73
2017-07-31T17:08:59.872Z,5.80
2017-07-31T17:11:27.237Z,4.77
2017-07-31T17:13:54.515Z,4.13
2017-07-31T17:16:21.813Z,3.80
2017-07-31T17:18:49.216Z,3.90
2017-07-31T17:21:16.579Z,4.50
2017-07-31T17:23:43.893Z,4.50
2017-07-31T17:26:11.219Z,4.40
2017-07-31T17:28:38.521Z,4.40
2017-07-31T17:31:05.804Z,4.40
2017-07-31T17:33:33.151Z,4.50
2017-07-31T17:36:00.503Z,4.77
2017-07-31T17:38:27.853Z,4.93
2017-07-31T17:40:55.199Z,4.60
2017-07-31T17:43:22.516Z,4.47
2017-07-31T17:45:49.832Z,4.70
2017-07-31T17:48:17.118Z,4.90
2017-07-31T17:50:44.485Z,5.20
2017-07-31T17:53:11.864Z,5.47
2017-07-31T17:55:39.179Z,5.13
2017-07-31T17:58:06.473Z,5.30
2017-07-31T18:00:33.813Z,5.40
2017-07-31T18:03:01.129Z,5.00
2017-07-31T18:05:28.453Z,5.03
2017-07-31T18:07:55.769Z,4.93
2017-07-31T18:10:23.073Z,5.57
2017-07-31T18:12:50.433Z,5.10
2017-07-31T18:15:17.738Z,5.77
2017-07-31T18:17:45.051Z,5.50
2017-07-31T18:20:12.368Z,5.83
2017-07-31T18:22:39.675Z,6.60
2017-07-31T18:25:07.306Z,6.60
2017-07-31T18:27:34.667Z,6.33
2017-07-31T18:30:01.971Z,5.90
2017-07-31T18:32:29.307Z,6.03
2017-07-31T18:34:56.778Z,5.87
2017-07-31T18:37:24.056Z,6.90
2017-07-31T18:39:51.373Z,5.57
2017-07-31T18:42:18.709Z,6.67
2017-07-31T18:44:46.115Z,6.20
2017-07-31T18:47:13.417Z,7.00
2017-07-31T18:49:40.733Z,6.30
2017-07-31T18:52:08.056Z,6.73
2017-07-31T18:54:35.373Z,6.50
2017-07-31T18:57:02.685Z,12.10
2017-07-31T18:59:29.979Z,8.77
2017-07-31T19:01:57.297Z,6.80
2017-07-31T19:04:24.741Z,8.87
2017-07-31T19:06:52.146Z,9.73
2017-07-31T19:09:19.439Z,7.33
2017-07-31T19:11:46.801Z,7.30
2017-07-31T19:14:14.115Z,6.63
2017-07-31T19:16:41.453Z,6.90
2017-07-31T19:19:08.779Z,7.90
2017-07-31T19:21:36.077Z,7.13
2017-07-31T19:24:03.420Z,7.13
2017-07-31T19:26:30.737Z,7.20
2017-07-31T19:28:58.065Z,7.60
2017-07-31T19:31:25.386Z,7.83
2017-07-31T19:33:52.705Z,7.80
2017-07-31T19:36:20.103Z,8.57
2017-07-31T19:38:47.403Z,8.80
2017-07-31T19:41:14.704Z,8.90
2017-07-31T19:43:42.063Z,9.10
2017-07-31T19:46:09.364Z,8.20
2017-07-31T19:48:36.752Z,8.77
2017-07-31T19:51:04.049Z,9.00
2017-07-31T19:56:04.071Z,8.90
2017-07-31T19:58:32.160Z,8.90
2017-07-31T20:00:59.481Z,8.27
2017-07-31T20:03:26.869Z,9.20
2017-07-31T20:05:54.217Z,8.20
2017-07-31T20:08:21.527Z,8.23
2017-07-31T20:10:48.843Z,8.80
2017-07-31T20:13:16.135Z,8.20
2017-07-31T20:15:43.450Z,8.67
2017-07-31T20:18:10.771Z,8.77
2017-07-31T20:20:38.396Z,9.17
2017-07-31T20:23:05.735Z,8.30
2017-07-31T20:25:33.056Z,8.50
2017-07-31T20:28:00.381Z,8.43
2017-07-31T20:30:27.680Z,7.93
2017-07-31T20:35:31.541Z,7.90
2017-07-31T20:37:58.873Z,8.17
2017-07-31T20:40:26.173Z,8.03
2017-07-31T20:42:53.459Z,8.03
2017-07-31T20:45:20.779Z,8.03
2017-07-31T20:47:48.080Z,9.00
2017-07-31T20:50:15.404Z,8.37
2017-07-31T20:52:42.728Z,8.83
2017-07-31T20:55:10.058Z,15.23
2017-07-31T20:57:37.508Z,9.20
2017-07-31T21:00:04.825Z,8.23
2017-07-31T21:02:32.128Z,8.00
2017-07-31T21:04:59.485Z,10.97
2017-07-31T21:07:26.776Z,7.80
2017-07-31T21:09:54.095Z,8.63
2017-07-31T21:12:21.401Z,8.37
2017-07-31T21:14:48.688Z,10.30
2017-07-31T21:17:16.004Z,8.37
2017-07-31T21:19:43.304Z,8.60
2017-07-31T21:22:10.642Z,8.70
2017-07-31T21:24:37.960Z,8.00
2017-07-31T21:27:05.292Z,9.43
2017-07-31T21:29:32.755Z,8.63
2017-07-31T21:32:00.588Z,8.37
2017-07-31T21:34:27.892Z,8.37
2017-07-31T21:36:55.193Z,7.93
2017-07-31T21:39:22.578Z,8.90
2017-07-31T21:41:49.884Z,8.77
2017-07-31T21:44:17.222Z,8.47
2017-07-31T21:46:44.556Z,8.70
2017-07-31T21:49:12.703Z,8.87
2017-07-31T21:51:40.001Z,8.40
2017-07-31T21:54:07.604Z,7.73
2017-07-31T21:56:34.956Z,9.03
2017-07-31T21:59:02.248Z,8.40
2017-07-31T22:01:29.569Z,8.50
2017-07-31T22:03:56.868Z,9.73
2017-07-31T22:06:24.232Z,9.27
2017-07-31T22:08:51.560Z,9.07
2017-07-31T22:11:18.889Z,8.43
2017-07-31T22:13:46.264Z,8.30
2017-07-31T22:16:13.604Z,10.00
2017-07-31T22:18:40.959Z,8.70
2017-07-31T22:21:13.939Z,9.43
2017-07-31T22:23:41.255Z,9.40
2017-07-31T22:26:08.571Z,10.20
2017-07-31T22:28:35.931Z,9.47
2017-07-31T22:31:03.568Z,9.60
2017-07-31T22:33:30.915Z,9.20
2017-07-31T22:35:58.231Z,9.40
2017-07-31T22:38:25.533Z,9.10
2017-07-31T22:40:53.047Z,10.20
2017-07-31T22:43:20.336Z,9.23
2017-07-31T22:45:47.809Z,9.20
2017-07-31T22:48:15.140Z,9.47
2017-07-31T22:50:42.468Z,9.10
2017-07-31T22:53:09.915Z,9.70
2017-07-31T22:55:37.633Z,9.70
2017-07-31T22:58:05.108Z,9.27
2017-07-31T23:00:32.456Z,9.50
2017-07-31T23:02:59.767Z,9.67
2017-07-31T23:05:27.252Z,10.50
2017-07-31T23:07:54.570Z,9.53
2017-07-31T23:10:22.648Z,10.03
2017-07-31T23:12:49.986Z,9.30
2017-07-31T23:15:17.289Z,9.83
2017-07-31T23:17:44.619Z,9.80
2017-07-31T23:20:11.988Z,9.70
2017-07-31T23:22:39.465Z,10.17
2017-07-31T23:25:06.790Z,9.50
2017-07-31T23:27:34.088Z,10.20
2017-07-31T23:30:01.436Z,10.60
2017-07-31T23:32:28.730Z,10.20
2017-07-31T23:34:56.075Z,10.97
2017-07-31T23:37:23.368Z,9.90
2017-07-31T23:39:50.877Z,9.67
2017-07-31T23:42:18.771Z,9.03
2017-07-31T23:44:46.074Z,11.00
2017-07-31T23:47:13.388Z,10.67
2017-07-31T23:49:40.740Z,10.50
2017-07-31T23:52:08.086Z,10.43
2017-07-31T23:54:35.417Z,10.60
2017-07-31T23:57:02.755Z,10.20
2017-07-31T23:59:30.075Z,9.80
